createdAt,value
2023-02-14T00:00:25.675Z,0.00
2023-02-14T00:05:27.165Z,0.00
2023-02-14T00:10:33.404Z,0.00
2023-02-14T00:15:22.363Z,0.00
2023-02-14T00:20:28.708Z,0.00
2023-02-14T00:25:17.304Z,0.00
2023-02-14T00:30:23.376Z,0.00
2023-02-14T00:35:29.574Z,0.00
2023-02-14T00:40:18.349Z,0.00
2023-02-14T00:45:24.108Z,0.00
2023-02-14T00:50:30.150Z,0.00
2023-02-14T00:55:19.263Z,0.00
2023-02-14T01:00:28.366Z,0.00
2023-02-14T01:05:31.988Z,0.00
2023-02-14T01:10:21.458Z,0.00
2023-02-14T01:15:27.056Z,0.00
2023-02-14T01:20:33.727Z,0.00
2023-02-14T01:25:22.198Z,0.00
2023-02-14T01:30:28.375Z,0.00
2023-02-14T01:35:34.356Z,0.00
2023-02-14T01:40:22.730Z,0.00
2023-02-14T01:45:28.582Z,0.00
2023-02-14T01:50:17.678Z,0.00
2023-02-14T01:55:23.688Z,0.00
2023-02-14T02:00:31.878Z,0.00
2023-02-14T02:05:18.185Z,0.00
2023-02-14T02:10:24.355Z,0.00
2023-02-14T02:15:30.472Z,0.00
2023-02-14T02:20:20.613Z,0.00
2023-02-14T02:25:25.810Z,0.00
2023-02-14T02:30:31.472Z,0.00
2023-02-14T02:35:20.486Z,0.00
2023-02-14T02:40:27.173Z,0.00
2023-02-14T02:45:32.997Z,0.00
2023-02-14T02:50:22.063Z,0.00
2023-02-14T02:55:28.116Z,0.00
2023-02-14T03:00:35.893Z,0.00
2023-02-14T03:05:22.648Z,0.00
2023-02-14T03:10:28.721Z,0.00
2023-02-14T03:15:17.679Z,0.00
2023-02-14T03:20:25.412Z,0.00
2023-02-14T03:25:29.686Z,0.00
2023-02-14T03:30:18.783Z,0.00
2023-02-14T03:35:25.005Z,0.00
2023-02-14T03:40:30.774Z,0.00
2023-02-14T03:45:19.683Z,0.00
2023-02-14T03:50:25.585Z,0.00
2023-02-14T03:55:31.781Z,0.00
2023-02-14T04:00:23.488Z,0.00
2023-02-14T04:05:26.228Z,0.00
2023-02-14T04:10:32.147Z,0.00
2023-02-14T04:15:21.161Z,0.00
2023-02-14T04:20:27.537Z,0.00
2023-02-14T04:25:33.277Z,0.00
2023-02-14T04:30:22.349Z,0.00
2023-02-14T04:35:28.418Z,0.00
2023-02-14T04:40:18.638Z,0.00
2023-02-14T04:45:24.001Z,0.00
2023-02-14T04:50:30.455Z,0.00
2023-02-14T04:55:19.334Z,0.00
2023-02-14T05:00:26.838Z,0.00
2023-02-14T05:05:30.691Z,0.00
2023-02-14T05:10:19.800Z,0.00
2023-02-14T05:15:26.002Z,0.00
2023-02-14T05:20:34.313Z,0.00
2023-02-14T05:25:20.753Z,0.00
2023-02-14T05:30:26.934Z,0.00
2023-02-14T05:35:33.411Z,0.00
2023-02-14T05:40:28.960Z,0.00
2023-02-14T05:45:27.532Z,0.00
2023-02-14T05:50:33.655Z,0.00
2023-02-14T05:55:23.240Z,0.00
2023-02-14T06:00:31.820Z,0.00
2023-02-14T06:05:18.137Z,0.00
2023-02-14T06:10:23.412Z,0.00
2023-02-14T06:15:29.397Z,0.00
2023-02-14T06:20:18.683Z,0.00
2023-02-14T06:25:24.629Z,0.00
2023-02-14T06:30:30.907Z,0.17
2023-02-14T06:35:19.600Z,0.82
2023-02-14T06:40:26.642Z,1.49
2023-02-14T06:45:32.140Z,2.77
2023-02-14T06:50:21.039Z,4.49
2023-02-14T06:55:27.478Z,6.17
2023-02-14T07:00:34.731Z,7.59
2023-02-14T07:05:21.713Z,8.57
2023-02-14T07:10:28.413Z,10.25
2023-02-14T07:15:34.109Z,11.50
2023-02-14T07:20:24.400Z,12.85
2023-02-14T07:25:28.861Z,15.23
2023-02-14T07:30:17.898Z,16.72
2023-02-14T07:35:24.209Z,18.02
2023-02-14T07:40:31.266Z,20.71
2023-02-14T07:45:21.937Z,21.87
2023-02-14T07:50:24.843Z,25.08
2023-02-14T07:55:30.872Z,26.63
2023-02-14T08:00:21.299Z,29.88
2023-02-14T08:05:25.350Z,31.08
2023-02-14T08:10:31.306Z,33.59
2023-02-14T08:15:20.666Z,35.49
2023-02-14T08:20:26.624Z,34.41
2023-02-14T08:25:33.215Z,37.76
2023-02-14T08:30:21.457Z,42.16
2023-02-14T08:35:27.663Z,44.35
2023-02-14T08:40:34.446Z,47.00
2023-02-14T08:45:23.202Z,47.49
2023-02-14T08:50:29.165Z,46.69
2023-02-14T08:55:18.259Z,49.18
2023-02-14T09:00:25.757Z,51.70
2023-02-14T09:05:29.897Z,56.80
2023-02-14T09:10:18.750Z,67.32
2023-02-14T09:15:26.344Z,65.28
2023-02-14T09:20:30.935Z,66.01
2023-02-14T09:25:19.830Z,73.80
2023-02-14T09:30:26.183Z,73.49
2023-02-14T09:35:32.414Z,73.08
2023-02-14T09:40:22.934Z,75.47
2023-02-14T09:45:26.751Z,75.83
2023-02-14T09:50:32.826Z,77.69
2023-02-14T09:55:21.610Z,79.76
2023-02-14T10:00:31.004Z,87.81
2023-02-14T10:05:34.426Z,92.02
2023-02-14T10:10:23.115Z,88.01
2023-02-14T10:15:29.420Z,88.44
2023-02-14T10:20:18.338Z,88.92
2023-02-14T10:25:24.550Z,88.83
2023-02-14T10:30:30.765Z,92.70
2023-02-14T10:35:19.821Z,89.05
2023-02-14T10:40:25.469Z,94.48
2023-02-14T10:45:31.222Z,94.05
2023-02-14T10:50:20.479Z,93.06
2023-02-14T10:55:32.236Z,94.86
2023-02-14T11:05:20.638Z,90.19
2023-02-14T11:10:26.882Z,93.54
2023-02-14T11:15:34.294Z,97.28
2023-02-14T11:20:22.662Z,96.85
2023-02-14T11:25:28.056Z,91.09
2023-02-14T11:30:33.974Z,90.13
2023-02-14T11:35:22.995Z,96.00
2023-02-14T11:40:29.305Z,98.96
2023-02-14T11:45:17.631Z,100.43
2023-02-14T11:50:23.682Z,95.74
2023-02-14T11:55:29.931Z,94.21
2023-02-14T12:00:21.471Z,96.33
2023-02-14T12:05:24.266Z,93.45
2023-02-14T12:10:30.297Z,93.83
2023-02-14T12:15:19.294Z,90.76
2023-02-14T12:20:27.412Z,88.84
2023-02-14T12:25:35.615Z,86.02
2023-02-14T12:30:20.646Z,88.60
2023-02-14T12:35:26.793Z,86.05
2023-02-14T12:40:34.384Z,84.29
2023-02-14T12:45:22.248Z,78.55
2023-02-14T12:50:28.277Z,79.13
2023-02-14T12:55:34.530Z,85.55
2023-02-14T13:00:26.384Z,88.95
2023-02-14T13:05:28.675Z,87.54
2023-02-14T13:10:17.878Z,84.15
2023-02-14T13:15:24.235Z,82.20
2023-02-14T13:20:31.353Z,74.73
2023-02-14T13:25:18.869Z,75.38
2023-02-14T13:30:25.417Z,78.23
2023-02-14T13:35:31.542Z,74.64
2023-02-14T13:40:20.998Z,70.68
2023-02-14T13:45:25.727Z,69.58
2023-02-14T13:50:32.121Z,63.99
2023-02-14T13:55:20.706Z,61.14
2023-02-14T14:00:33.188Z,59.88
2023-02-14T14:05:33.291Z,56.04
2023-02-14T14:10:22.166Z,54.46
2023-02-14T14:15:28.115Z,53.17
2023-02-14T14:20:34.703Z,47.02
2023-02-14T14:25:23.560Z,45.99
2023-02-14T14:30:29.413Z,44.99
2023-02-14T14:35:18.733Z,42.23
2023-02-14T14:40:25.460Z,40.81
2023-02-14T14:45:30.170Z,36.92
2023-02-14T14:50:19.233Z,34.48
2023-02-14T14:55:25.129Z,31.77
2023-02-14T15:00:32.717Z,30.23
2023-02-14T15:05:20.225Z,28.55
2023-02-14T15:10:25.964Z,27.86
2023-02-14T15:15:31.989Z,26.22
2023-02-14T15:20:21.638Z,24.36
2023-02-14T15:25:27.145Z,21.70
2023-02-14T15:30:32.892Z,19.74
2023-02-14T15:35:21.943Z,15.98
2023-02-14T15:40:27.726Z,13.92
2023-02-14T15:45:34.077Z,12.34
2023-02-14T15:50:22.899Z,10.21
2023-02-14T15:55:29.049Z,8.53
2023-02-14T16:00:21.382Z,7.07
2023-02-14T16:05:23.348Z,5.43
2023-02-14T16:10:29.451Z,3.72
2023-02-14T16:15:18.369Z,2.62
2023-02-14T16:20:24.541Z,1.67
2023-02-14T16:25:30.560Z,0.47
2023-02-14T16:30:19.504Z,0.11
2023-02-14T16:35:25.756Z,0.02
2023-02-14T16:40:31.459Z,0.00
2023-02-14T16:45:20.131Z,0.00
2023-02-14T16:50:26.378Z,0.00
2023-02-14T16:55:32.595Z,0.00
2023-02-14T17:00:24.964Z,0.00
2023-02-14T17:05:27.921Z,0.00
2023-02-14T17:10:33.758Z,0.00
2023-02-14T17:15:22.734Z,0.00
2023-02-14T17:20:30.818Z,0.00
2023-02-14T17:25:17.835Z,0.00
2023-02-14T17:30:24.004Z,0.00
2023-02-14T17:35:30.183Z,0.00
2023-02-14T17:40:19.041Z,0.00
2023-02-14T17:45:24.887Z,0.00
2023-02-14T17:50:30.672Z,0.00
2023-02-14T17:55:19.802Z,0.00
2023-02-14T18:00:31.853Z,0.00
2023-02-14T18:05:31.250Z,0.00
2023-02-14T18:10:20.321Z,0.00
2023-02-14T18:15:26.222Z,0.00
2023-02-14T18:20:32.711Z,0.00
2023-02-14T18:25:21.489Z,0.00
2023-02-14T18:30:27.447Z,0.00
2023-02-14T18:35:33.590Z,0.00
2023-02-14T18:40:22.335Z,0.00
2023-02-14T18:45:28.167Z,0.00
2023-02-14T18:50:17.384Z,0.00
2023-02-14T18:55:23.359Z,0.00
2023-02-14T19:00:32.623Z,0.00
2023-02-14T19:05:18.879Z,0.00
2023-02-14T19:10:24.915Z,0.00
2023-02-14T19:15:31.073Z,0.00
2023-02-14T19:20:21.518Z,0.00
2023-02-14T19:25:25.993Z,0.00
2023-02-14T19:30:32.228Z,0.00
2023-02-14T19:35:21.030Z,0.00
2023-02-14T19:40:26.692Z,0.00
2023-02-14T19:45:32.971Z,0.00
2023-02-14T19:50:22.199Z,0.00
2023-02-14T19:55:27.997Z,0.00
2023-02-14T20:00:38.401Z,0.00
2023-02-14T20:05:22.356Z,0.00
2023-02-14T20:10:28.234Z,0.00
2023-02-14T20:15:17.274Z,0.00
2023-02-14T20:20:23.277Z,0.00
2023-02-14T20:25:29.429Z,0.00
2023-02-14T20:30:18.428Z,0.00
2023-02-14T20:35:24.302Z,0.00
2023-02-14T20:40:31.179Z,0.00
2023-02-14T20:45:20.262Z,0.00
2023-02-14T20:50:26.116Z,0.00
2023-02-14T20:55:32.594Z,0.00
2023-02-14T21:00:22.654Z,0.00
2023-02-14T21:05:26.758Z,0.00
2023-02-14T21:10:33.224Z,0.00
2023-02-14T21:15:21.708Z,0.00
2023-02-14T21:20:27.791Z,0.00
2023-02-14T21:25:33.980Z,0.00
2023-02-14T21:30:23.069Z,0.00
2023-02-14T21:35:29.098Z,0.00
2023-02-14T21:40:17.766Z,0.00
2023-02-14T21:45:23.396Z,0.00
2023-02-14T21:50:29.791Z,0.00
2023-02-14T21:55:18.766Z,0.00
2023-02-14T22:00:27.197Z,0.00
2023-02-14T22:05:30.969Z,0.00
2023-02-14T22:10:20.144Z,0.00
2023-02-14T22:15:25.980Z,0.00
2023-02-14T22:20:32.486Z,0.00
2023-02-14T22:25:21.649Z,0.00
2023-02-14T22:30:27.985Z,0.00
2023-02-14T22:35:33.587Z,0.00
2023-02-14T22:40:21.787Z,0.00
2023-02-14T22:45:28.060Z,0.00
2023-02-14T22:50:33.774Z,0.00
2023-02-14T22:55:23.020Z,0.00
2023-02-14T23:00:33.181Z,0.00
2023-02-14T23:05:18.062Z,0.00
2023-02-14T23:10:24.039Z,0.00
2023-02-14T23:15:29.895Z,0.00
2023-02-14T23:20:19.063Z,0.00
2023-02-14T23:25:26.658Z,0.00
2023-02-14T23:30:30.698Z,0.00
2023-02-14T23:35:19.681Z,0.00
2023-02-14T23:40:26.103Z,0.00
2023-02-14T23:45:31.766Z,0.00
2023-02-14T23:50:20.726Z,0.00
2023-02-14T23:55:27.012Z,0.00
